CheckWX is a tool to help pilots better visualize weather data.  It is not intended as a substitute for an official pre-flight weather briefing.

01:23:16 UTC

KPNM METAR
Princeton Municipal Airport
Princeton, Minnesota, USA
Current

7 mins ago

KPNM 200116Z AUTO 34003KT 10SM CLR 24/21 A2969 RMK AO2 LTG DSNT E
Observed
Jul-20 @ 01:16 UTC
Wind
  • 340° at 3 KTS
Visibility
10 SM
Flight Rules
VFR
Cloud Levels
  • Clear skies
Temperature
24°C / 75°F
Dewpoint
21°C / 70°F
Humidity
83%
Altimeter
29.69" Hg
Pressure
1005.42 hPa
Previous

27 mins ago

KPNM 200056Z AUTO 32004KT 10SM SCT048 24/21 A2968 RMK AO2
Observed
Jul-20 @ 00:56 UTC
Wind
  • 320° at 4 KTS
Visibility
10 SM
Flight Rules
VFR
Cloud Levels
  • Scattered at 4,800' AGL
Temperature
24°C / 75°F
Dewpoint
21°C / 70°F
Humidity
83%
Altimeter
29.68" Hg
Pressure
1005.12 hPa
Previous

46 mins ago

KPNM 200037Z AUTO 35003KT 10SM SCT048 24/21 A2967 RMK AO2 LTG DSNT E
Observed
Jul-20 @ 00:37 UTC
Wind
  • 350° at 3 KTS
Visibility
10 SM
Flight Rules
VFR
Cloud Levels
  • Scattered at 4,800' AGL
Temperature
24°C / 75°F
Dewpoint
21°C / 70°F
Humidity
83%
Altimeter
29.67" Hg
Pressure
1004.72 hPa